Aérodrome :
LOGIN :

S'inscrire | Disclaimer

   EN    FR    IT 

 










Légende :    VFR   VFR Marginal   IFR   IFR Intensif   IFR Très Intensif
Visi : 
Plafond : 
>= 8 km
>= 3000ft
5 à 8 km
1000 à 3000 ft
1500m à 5 km
500 à 1000 ft
800 à 1500m
200 à 500 ft
< 800m
< 200 ft
Symboles :   Orages  Brouillard  Fortes neiges  Fortes précipitations  Vent > 20 kt
SIGMETs :   Divers  Orages  Givrage  Turbulence  Onde Orograph.  Cendres Volcan.







- Altitude de l'aérodrome : 788 ft
- Code IATA : DCM
- Voir les cartes d'approche


LFCK - Castres-Mazamet

DERNIER METAR :
  • 241500Z AUTO 32006KT 300V360 9999 -RA BKN024/// BKN030/// BKN038/// ///TCU 08/06 Q1017 TEMPO 4000 RA BKN010 SCT040TCU

METARs EXPIRÉS :
  • 241430Z AUTO 32005KT 6000 -RA BKN033/// OVC039/// ///TCU 08/06 Q1018 TEMPO 4000 RA BKN010 SCT040TCU
  • 241400Z AUTO 33007KT 9999 -RA FEW036/// OVC050/// ///TCU 09/06 Q1017 TEMPO 4000 RA BKN010 SCT040TCU
  • 241330Z AUTO 35005KT 9000 -RA BKN031/// BKN042/// OVC048/// ///TCU 09/07 Q1017 TEMPO 4000 RA BKN010 SCT040TCU
  • 241300Z AUTO 34003KT 9999 -RA BKN032/// OVC042/// ///TCU 10/07 Q1017 TEMPO 4000 RA BKN010 SCT040TCU
  • 241230Z AUTO VRB01KT 9999 RA OVC046/// ///TCU 09/08 Q1017 TEMPO 4000 RA BKN010 SCT040TCU

TAF TAF LFCK
Valide du 24 à 15h jusqu'au 25 à 00h UTC


241400Z 2415/2424 VRB03KT CAVOK
TEMPO 2415/2424 4000 RA BKN010 SCT040TCU
PROB30
TEMPO 2417/2424 31016G26KT 2000 TSRA BKN005 SCT030CB
Pas de NOTAMs connus pour ce terrain.



MET'MAP, la Météo Aéronautique d'un coup d'oeil ! - Copyright ORBIFLY Décembre 2007 - Disclaimer

ORBIFLY MET'MAP TEAM :

Programmation & Développement : Alexandra Zaïnal
Conception & Développement : Baudouin d'Aumeries
Co-Programmation & Développement : Marc-Olivier Méhu
Soutien technique & logistique : Manuel Goepfert

Contact : metmap@orbifly.com




SOURCES & CREDITS :

   NOAA